sensor_id;sensor_type;location;lat;lon;timestamp;pressure;altitude;pressure_sealevel;temperature;humidity
16544;BME280;8384;47.996;7.786;2023-07-31T00:01:43;98939.34;;;16.34;75.91
16544;BME280;8384;47.996;7.786;2023-07-31T00:04:09;98930.31;;;16.29;75.95
16544;BME280;8384;47.996;7.786;2023-07-31T00:06:34;98940.47;;;16.33;76.29
16544;BME280;8384;47.996;7.786;2023-07-31T00:08:59;98929.34;;;16.19;77.12
16544;BME280;8384;47.996;7.786;2023-07-31T00:11:25;98929.84;;;16.22;78.39
16544;BME280;8384;47.996;7.786;2023-07-31T00:13:50;98918.59;;;15.94;78.93
16544;BME280;8384;47.996;7.786;2023-07-31T00:16:15;98934.00;;;15.65;81.86
16544;BME280;8384;47.996;7.786;2023-07-31T00:18:40;98913.91;;;15.65;81.26
16544;BME280;8384;47.996;7.786;2023-07-31T00:21:06;98945.06;;;15.95;80.69
16544;BME280;8384;47.996;7.786;2023-07-31T00:23:31;98935.84;;;15.75;80.90
16544;BME280;8384;47.996;7.786;2023-07-31T00:25:56;98939.66;;;15.50;82.45
16544;BME280;8384;47.996;7.786;2023-07-31T00:28:21;98934.66;;;15.57;82.79
16544;BME280;8384;47.996;7.786;2023-07-31T00:30:47;98928.16;;;15.08;85.28
16544;BME280;8384;47.996;7.786;2023-07-31T00:33:12;98927.13;;;14.98;86.05
16544;BME280;8384;47.996;7.786;2023-07-31T00:35:37;98934.84;;;14.96;86.31
16544;BME280;8384;47.996;7.786;2023-07-31T00:38:03;98932.59;;;14.53;89.98
16544;BME280;8384;47.996;7.786;2023-07-31T00:40:28;98929.59;;;14.50;91.00
16544;BME280;8384;47.996;7.786;2023-07-31T00:42:53;98928.69;;;14.70;89.18
16544;BME280;8384;47.996;7.786;2023-07-31T00:45:18;98930.88;;;14.63;90.07
16544;BME280;8384;47.996;7.786;2023-07-31T00:47:44;98928.81;;;14.34;92.85
16544;BME280;8384;47.996;7.786;2023-07-31T00:50:09;98913.19;;;14.29;92.43
16544;BME280;8384;47.996;7.786;2023-07-31T00:52:35;98928.22;;;14.47;92.04
16544;BME280;8384;47.996;7.786;2023-07-31T00:55:01;98914.50;;;14.42;91.93
16544;BME280;8384;47.996;7.786;2023-07-31T00:57:26;98920.63;;;14.29;93.54
16544;BME280;8384;47.996;7.786;2023-07-31T00:59:51;98910.44;;;14.29;92.90
16544;BME280;8384;47.996;7.786;2023-07-31T01:02:17;98904.47;;;14.17;93.91
16544;BME280;8384;47.996;7.786;2023-07-31T01:04:42;98893.75;;;14.05;94.46
16544;BME280;8384;47.996;7.786;2023-07-31T01:07:14;98905.56;;;14.10;94.70
16544;BME280;8384;47.996;7.786;2023-07-31T01:12:15;98905.09;;;13.88;96.89
16544;BME280;8384;47.996;7.786;2023-07-31T01:15:04;98904.25;;;13.92;95.92
16544;BME280;8384;47.996;7.786;2023-07-31T01:17:29;98900.44;;;13.78;97.02
16544;BME280;8384;47.996;7.786;2023-07-31T01:19:57;98897.72;;;13.73;97.47
16544;BME280;8384;47.996;7.786;2023-07-31T01:22:57;98903.22;;;13.62;98.41
16544;BME280;8384;47.996;7.786;2023-07-31T01:28:14;98887.84;;;13.72;96.98
16544;BME280;8384;47.996;7.786;2023-07-31T01:30:44;98874.16;;;13.46;97.48
16544;BME280;8384;47.996;7.786;2023-07-31T01:33:12;98902.13;;;13.58;99.79
16544;BME280;8384;47.996;7.786;2023-07-31T01:35:39;98901.63;;;13.41;100.00
16544;BME280;8384;47.996;7.786;2023-07-31T01:38:05;98876.34;;;13.44;98.05
16544;BME280;8384;47.996;7.786;2023-07-31T01:40:30;98890.28;;;13.68;95.93
16544;BME280;8384;47.996;7.786;2023-07-31T01:42:55;98883.69;;;13.79;88.70
16544;BME280;8384;47.996;7.786;2023-07-31T01:45:21;98869.94;;;13.90;85.29
16544;BME280;8384;47.996;7.786;2023-07-31T01:47:46;98888.44;;;14.29;81.29
16544;BME280;8384;47.996;7.786;2023-07-31T01:50:11;98875.53;;;14.30;80.79
16544;BME280;8384;47.996;7.786;2023-07-31T01:52:37;98879.00;;;14.46;79.60
16544;BME280;8384;47.996;7.786;2023-07-31T01:55:02;98831.78;;;14.33;77.60
16544;BME280;8384;47.996;7.786;2023-07-31T01:57:27;98874.53;;;14.55;79.21
16544;BME280;8384;47.996;7.786;2023-07-31T01:59:53;98880.53;;;14.67;77.62
16544;BME280;8384;47.996;7.786;2023-07-31T02:02:19;98871.19;;;14.63;76.73
16544;BME280;8384;47.996;7.786;2023-07-31T02:04:44;98863.97;;;14.78;75.49
16544;BME280;8384;47.996;7.786;2023-07-31T02:07:10;98877.69;;;14.83;76.19
16544;BME280;8384;47.996;7.786;2023-07-31T02:09:35;98866.16;;;14.81;75.32
16544;BME280;8384;47.996;7.786;2023-07-31T02:12:00;98871.84;;;14.90;73.77
16544;BME280;8384;47.996;7.786;2023-07-31T02:14:25;98865.22;;;14.96;74.04
16544;BME280;8384;47.996;7.786;2023-07-31T02:16:51;98862.69;;;14.99;74.22
16544;BME280;8384;47.996;7.786;2023-07-31T02:19:16;98857.25;;;14.94;73.56
16544;BME280;8384;47.996;7.786;2023-07-31T02:21:41;98854.03;;;14.82;73.64
16544;BME280;8384;47.996;7.786;2023-07-31T02:24:06;98843.50;;;14.94;72.63
16544;BME280;8384;47.996;7.786;2023-07-31T02:26:32;98846.28;;;14.89;72.65
16544;BME280;8384;47.996;7.786;2023-07-31T02:28:57;98860.47;;;15.02;72.36
16544;BME280;8384;47.996;7.786;2023-07-31T02:31:22;98850.81;;;15.09;71.51
16544;BME280;8384;47.996;7.786;2023-07-31T02:33:47;98837.38;;;14.97;72.19
16544;BME280;8384;47.996;7.786;2023-07-31T02:36:13;98836.81;;;15.00;72.12
16544;BME280;8384;47.996;7.786;2023-07-31T02:38:39;98837.34;;;15.03;72.17
16544;BME280;8384;47.996;7.786;2023-07-31T02:41:04;98828.09;;;14.93;72.38
16544;BME280;8384;47.996;7.786;2023-07-31T02:43:30;98830.19;;;14.72;73.33
16544;BME280;8384;47.996;7.786;2023-07-31T02:45:55;98839.72;;;14.85;73.71
16544;BME280;8384;47.996;7.786;2023-07-31T02:48:20;98844.84;;;14.97;72.96
16544;BME280;8384;47.996;7.786;2023-07-31T02:50:47;98842.09;;;14.97;72.65
16544;BME280;8384;47.996;7.786;2023-07-31T02:53:13;98839.66;;;14.90;72.58
16544;BME280;8384;47.996;7.786;2023-07-31T02:55:38;98860.81;;;14.95;72.77
16544;BME280;8384;47.996;7.786;2023-07-31T02:58:04;98858.97;;;14.85;73.36
16544;BME280;8384;47.996;7.786;2023-07-31T03:00:29;98849.97;;;14.74;72.97
16544;BME280;8384;47.996;7.786;2023-07-31T03:02:54;98849.09;;;14.79;72.53
16544;BME280;8384;47.996;7.786;2023-07-31T03:05:19;98866.66;;;14.88;72.77
16544;BME280;8384;47.996;7.786;2023-07-31T03:07:45;98866.94;;;14.87;72.68
16544;BME280;8384;47.996;7.786;2023-07-31T03:10:10;98860.13;;;14.79;72.96
16544;BME280;8384;47.996;7.786;2023-07-31T03:12:35;98866.50;;;14.69;74.06
16544;BME280;8384;47.996;7.786;2023-07-31T03:15:00;98870.53;;;14.87;73.61
16544;BME280;8384;47.996;7.786;2023-07-31T03:17:26;98848.56;;;14.77;72.97
16544;BME280;8384;47.996;7.786;2023-07-31T03:19:51;98850.19;;;14.83;73.25
16544;BME280;8384;47.996;7.786;2023-07-31T03:22:16;98850.41;;;14.87;73.00
16544;BME280;8384;47.996;7.786;2023-07-31T03:24:41;98850.94;;;14.89;73.39
16544;BME280;8384;47.996;7.786;2023-07-31T03:27:07;98853.16;;;14.87;73.13
16544;BME280;8384;47.996;7.786;2023-07-31T03:29:32;98854.53;;;14.89;72.93
16544;BME280;8384;47.996;7.786;2023-07-31T03:31:57;98831.31;;;15.00;72.01
16544;BME280;8384;47.996;7.786;2023-07-31T03:34:24;98850.09;;;14.93;72.47
16544;BME280;8384;47.996;7.786;2023-07-31T03:36:49;98848.72;;;14.91;72.70
16544;BME280;8384;47.996;7.786;2023-07-31T03:39:14;98849.56;;;14.91;72.42
16544;BME280;8384;47.996;7.786;2023-07-31T03:41:39;98847.66;;;14.87;72.52
16544;BME280;8384;47.996;7.786;2023-07-31T03:44:05;98845.38;;;14.99;72.20
16544;BME280;8384;47.996;7.786;2023-07-31T03:46:30;98855.84;;;14.97;71.65
16544;BME280;8384;47.996;7.786;2023-07-31T03:48:55;98849.09;;;15.13;71.25
16544;BME280;8384;47.996;7.786;2023-07-31T03:51:21;98852.69;;;15.14;71.09
16544;BME280;8384;47.996;7.786;2023-07-31T03:53:46;98852.09;;;15.17;71.00
16544;BME280;8384;47.996;7.786;2023-07-31T03:56:11;98846.88;;;15.15;70.88
16544;BME280;8384;47.996;7.786;2023-07-31T03:58:37;98855.06;;;15.26;69.95
16544;BME280;8384;47.996;7.786;2023-07-31T04:01:03;98846.66;;;15.12;70.78
16544;BME280;8384;47.996;7.786;2023-07-31T04:03:28;98842.28;;;15.06;70.65
16544;BME280;8384;47.996;7.786;2023-07-31T04:05:54;98849.34;;;15.17;70.92
16544;BME280;8384;47.996;7.786;2023-07-31T04:08:23;98850.44;;;15.21;70.82
16544;BME280;8384;47.996;7.786;2023-07-31T04:10:49;98853.44;;;15.20;70.73
16544;BME280;8384;47.996;7.786;2023-07-31T04:13:15;98845.94;;;15.25;70.81
16544;BME280;8384;47.996;7.786;2023-07-31T04:15:40;98840.75;;;15.24;70.72
16544;BME280;8384;47.996;7.786;2023-07-31T04:18:05;98841.28;;;15.26;70.22
16544;BME280;8384;47.996;7.786;2023-07-31T04:20:31;98846.25;;;15.24;70.34
16544;BME280;8384;47.996;7.786;2023-07-31T04:22:56;98853.94;;;15.27;70.51
16544;BME280;8384;47.996;7.786;2023-07-31T04:25:21;98854.75;;;15.27;70.49
16544;BME280;8384;47.996;7.786;2023-07-31T04:27:47;98866.34;;;15.24;70.25
16544;BME280;8384;47.996;7.786;2023-07-31T04:30:12;98866.63;;;15.23;70.62
16544;BME280;8384;47.996;7.786;2023-07-31T04:32:37;98864.84;;;15.37;70.08
16544;BME280;8384;47.996;7.786;2023-07-31T04:35:03;98864.13;;;15.56;69.58
16544;BME280;8384;47.996;7.786;2023-07-31T04:37:28;98863.53;;;15.59;69.77
16544;BME280;8384;47.996;7.786;2023-07-31T04:39:53;98851.28;;;15.46;69.51
16544;BME280;8384;47.996;7.786;2023-07-31T04:42:19;98856.66;;;15.56;69.54
16544;BME280;8384;47.996;7.786;2023-07-31T04:44:44;98855.19;;;15.64;69.22
16544;BME280;8384;47.996;7.786;2023-07-31T04:47:09;98857.72;;;15.60;69.32
16544;BME280;8384;47.996;7.786;2023-07-31T04:49:35;98853.22;;;15.70;69.04
16544;BME280;8384;47.996;7.786;2023-07-31T04:52:00;98854.28;;;15.74;69.29
16544;BME280;8384;47.996;7.786;2023-07-31T04:54:25;98821.75;;;15.52;68.74
16544;BME280;8384;47.996;7.786;2023-07-31T04:56:51;98861.94;;;15.77;68.57
16544;BME280;8384;47.996;7.786;2023-07-31T04:59:17;98864.44;;;15.79;68.93
16544;BME280;8384;47.996;7.786;2023-07-31T05:01:42;98848.16;;;15.77;68.48
16544;BME280;8384;47.996;7.786;2023-07-31T05:04:08;98845.06;;;15.89;68.48
16544;BME280;8384;47.996;7.786;2023-07-31T05:06:33;98857.41;;;15.92;68.19
16544;BME280;8384;47.996;7.786;2023-07-31T05:08:58;98857.50;;;15.81;68.75
16544;BME280;8384;47.996;7.786;2023-07-31T05:11:24;98872.31;;;15.91;68.28
16544;BME280;8384;47.996;7.786;2023-07-31T05:13:49;98868.50;;;16.11;67.59
16544;BME280;8384;47.996;7.786;2023-07-31T05:16:14;98864.16;;;16.04;67.11
16544;BME280;8384;47.996;7.786;2023-07-31T05:18:39;98859.34;;;16.15;67.24
16544;BME280;8384;47.996;7.786;2023-07-31T05:21:05;98861.13;;;16.25;67.26
16544;BME280;8384;47.996;7.786;2023-07-31T05:23:30;98870.06;;;16.17;67.24
16544;BME280;8384;47.996;7.786;2023-07-31T05:26:03;98869.13;;;16.27;67.65
16544;BME280;8384;47.996;7.786;2023-07-31T05:28:28;98867.00;;;16.18;68.08
16544;BME280;8384;47.996;7.786;2023-07-31T05:30:59;98859.03;;;16.17;68.27
16544;BME280;8384;47.996;7.786;2023-07-31T05:33:24;98854.81;;;16.25;67.59
16544;BME280;8384;47.996;7.786;2023-07-31T05:35:49;98839.53;;;16.32;67.29
16544;BME280;8384;47.996;7.786;2023-07-31T05:38:15;98857.78;;;16.28;68.06
16544;BME280;8384;47.996;7.786;2023-07-31T05:40:40;98874.13;;;16.25;67.86
16544;BME280;8384;47.996;7.786;2023-07-31T05:43:05;98871.44;;;16.39;68.04
16544;BME280;8384;47.996;7.786;2023-07-31T05:45:33;98870.69;;;16.52;67.87
16544;BME280;8384;47.996;7.786;2023-07-31T05:47:58;98870.03;;;16.41;67.39
16544;BME280;8384;47.996;7.786;2023-07-31T05:50:23;98864.50;;;16.41;66.77
16544;BME280;8384;47.996;7.786;2023-07-31T05:52:48;98862.34;;;16.57;66.59
16544;BME280;8384;47.996;7.786;2023-07-31T05:55:14;98838.69;;;16.32;67.56
16544;BME280;8384;47.996;7.786;2023-07-31T05:57:39;98843.94;;;16.53;67.33
16544;BME280;8384;47.996;7.786;2023-07-31T06:00:05;98850.94;;;16.64;67.24
16544;BME280;8384;47.996;7.786;2023-07-31T06:02:32;98831.53;;;16.50;66.85
16544;BME280;8384;47.996;7.786;2023-07-31T06:05:01;98821.75;;;16.58;66.58
16544;BME280;8384;47.996;7.786;2023-07-31T06:07:26;98839.94;;;16.78;67.19
16544;BME280;8384;47.996;7.786;2023-07-31T06:09:52;98834.97;;;16.99;65.70
16544;BME280;8384;47.996;7.786;2023-07-31T06:12:19;98829.91;;;17.20;65.32
16544;BME280;8384;47.996;7.786;2023-07-31T06:14:45;98823.47;;;17.25;64.68
16544;BME280;8384;47.996;7.786;2023-07-31T06:17:10;98819.91;;;17.38;64.06
16544;BME280;8384;47.996;7.786;2023-07-31T06:19:35;98816.38;;;17.19;63.78
16544;BME280;8384;47.996;7.786;2023-07-31T06:22:01;98834.84;;;17.37;62.87
16544;BME280;8384;47.996;7.786;2023-07-31T06:24:26;98829.72;;;17.31;63.52
16544;BME280;8384;47.996;7.786;2023-07-31T06:26:51;98820.75;;;17.06;65.09
16544;BME280;8384;47.996;7.786;2023-07-31T06:29:17;98829.19;;;17.29;64.80
16544;BME280;8384;47.996;7.786;2023-07-31T06:31:42;98801.97;;;17.22;64.01
16544;BME280;8384;47.996;7.786;2023-07-31T06:34:07;98817.66;;;17.41;63.50
16544;BME280;8384;47.996;7.786;2023-07-31T06:36:32;98818.38;;;17.32;64.86
16544;BME280;8384;47.996;7.786;2023-07-31T06:38:58;98812.22;;;17.49;63.61
16544;BME280;8384;47.996;7.786;2023-07-31T06:41:23;98814.34;;;17.24;63.94
16544;BME280;8384;47.996;7.786;2023-07-31T06:43:48;98821.44;;;17.45;63.18
16544;BME280;8384;47.996;7.786;2023-07-31T06:46:13;98825.03;;;17.45;64.10
16544;BME280;8384;47.996;7.786;2023-07-31T06:48:39;98834.03;;;17.37;63.54
16544;BME280;8384;47.996;7.786;2023-07-31T06:51:04;98854.00;;;17.62;63.37
16544;BME280;8384;47.996;7.786;2023-07-31T06:53:29;98849.53;;;17.66;62.25
16544;BME280;8384;47.996;7.786;2023-07-31T06:55:55;98853.47;;;17.46;62.87
16544;BME280;8384;47.996;7.786;2023-07-31T06:58:20;98856.69;;;17.67;62.12
16544;BME280;8384;47.996;7.786;2023-07-31T07:00:45;98860.25;;;17.81;61.43
16544;BME280;8384;47.996;7.786;2023-07-31T07:03:11;98864.16;;;17.80;61.62
16544;BME280;8384;47.996;7.786;2023-07-31T07:05:36;98863.97;;;17.91;60.68
16544;BME280;8384;47.996;7.786;2023-07-31T07:08:01;98856.19;;;17.79;61.79
16544;BME280;8384;47.996;7.786;2023-07-31T07:10:26;98867.25;;;17.93;61.18
16544;BME280;8384;47.996;7.786;2023-07-31T07:12:52;98834.50;;;18.00;61.15
16544;BME280;8384;47.996;7.786;2023-07-31T07:15:18;98855.16;;;17.89;61.74
16544;BME280;8384;47.996;7.786;2023-07-31T07:17:43;98853.22;;;18.17;60.48
16544;BME280;8384;47.996;7.786;2023-07-31T07:20:08;98841.16;;;18.13;61.10
16544;BME280;8384;47.996;7.786;2023-07-31T07:22:34;98840.19;;;18.32;59.95
16544;BME280;8384;47.996;7.786;2023-07-31T07:24:59;98812.19;;;18.33;59.12
16544;BME280;8384;47.996;7.786;2023-07-31T07:27:24;98815.78;;;18.70;59.28
16544;BME280;8384;47.996;7.786;2023-07-31T07:29:51;98832.69;;;19.06;57.68
16544;BME280;8384;47.996;7.786;2023-07-31T07:32:19;98819.00;;;19.09;57.70
16544;BME280;8384;47.996;7.786;2023-07-31T07:34:47;98817.25;;;19.13;56.90
16544;BME280;8384;47.996;7.786;2023-07-31T07:37:13;98824.75;;;19.22;56.56
16544;BME280;8384;47.996;7.786;2023-07-31T07:39:38;98817.91;;;19.51;54.23
16544;BME280;8384;47.996;7.786;2023-07-31T07:42:03;98818.59;;;19.25;54.62
16544;BME280;8384;47.996;7.786;2023-07-31T07:44:29;98829.69;;;19.56;53.72
16544;BME280;8384;47.996;7.786;2023-07-31T07:46:54;98830.19;;;19.58;52.85
16544;BME280;8384;47.996;7.786;2023-07-31T07:49:19;98810.00;;;20.16;53.00
16544;BME280;8384;47.996;7.786;2023-07-31T07:51:48;98826.44;;;20.03;52.56
16544;BME280;8384;47.996;7.786;2023-07-31T07:54:14;98825.88;;;19.84;53.47
16544;BME280;8384;47.996;7.786;2023-07-31T07:56:39;98824.81;;;19.62;53.67
16544;BME280;8384;47.996;7.786;2023-07-31T07:59:04;98826.47;;;19.31;54.31
16544;BME280;8384;47.996;7.786;2023-07-31T08:01:30;98833.97;;;19.31;53.78
16544;BME280;8384;47.996;7.786;2023-07-31T08:03:55;98840.00;;;19.33;55.19
16544;BME280;8384;47.996;7.786;2023-07-31T08:06:20;98836.34;;;19.24;55.37
16544;BME280;8384;47.996;7.786;2023-07-31T08:08:46;98850.94;;;19.70;54.14
16544;BME280;8384;47.996;7.786;2023-07-31T08:11:11;98840.16;;;19.59;54.16
16544;BME280;8384;47.996;7.786;2023-07-31T08:13:36;98841.03;;;19.46;53.90
16544;BME280;8384;47.996;7.786;2023-07-31T08:16:03;98810.09;;;19.21;54.80
16544;BME280;8384;47.996;7.786;2023-07-31T08:18:29;98811.94;;;19.66;53.77
16544;BME280;8384;47.996;7.786;2023-07-31T08:20:54;98834.75;;;20.03;53.55
16544;BME280;8384;47.996;7.786;2023-07-31T08:23:19;98813.28;;;20.35;52.59
16544;BME280;8384;47.996;7.786;2023-07-31T08:25:44;98813.91;;;20.15;53.37
16544;BME280;8384;47.996;7.786;2023-07-31T08:28:10;98815.66;;;19.93;52.08
16544;BME280;8384;47.996;7.786;2023-07-31T08:30:35;98824.00;;;20.02;51.84
16544;BME280;8384;47.996;7.786;2023-07-31T08:33:00;98831.19;;;20.12;50.97
16544;BME280;8384;47.996;7.786;2023-07-31T08:35:26;98810.19;;;20.46;50.80
16544;BME280;8384;47.996;7.786;2023-07-31T08:37:54;98815.28;;;20.79;50.59
16544;BME280;8384;47.996;7.786;2023-07-31T08:40:20;98822.59;;;20.48;50.74
16544;BME280;8384;47.996;7.786;2023-07-31T08:42:47;98813.28;;;20.27;50.11
16544;BME280;8384;47.996;7.786;2023-07-31T08:45:15;98802.34;;;20.39;51.67
16544;BME280;8384;47.996;7.786;2023-07-31T08:47:44;98813.13;;;20.41;51.84
16544;BME280;8384;47.996;7.786;2023-07-31T08:50:10;98794.03;;;20.83;50.28
16544;BME280;8384;47.996;7.786;2023-07-31T08:52:37;98792.22;;;21.05;49.05
16544;BME280;8384;47.996;7.786;2023-07-31T08:55:02;98794.00;;;21.01;50.99
16544;BME280;8384;47.996;7.786;2023-07-31T08:57:27;98803.97;;;21.10;49.47
16544;BME280;8384;47.996;7.786;2023-07-31T08:59:54;98795.50;;;21.54;50.41
16544;BME280;8384;47.996;7.786;2023-07-31T09:02:20;98801.06;;;20.80;50.94
16544;BME280;8384;47.996;7.786;2023-07-31T09:04:46;98781.34;;;21.30;49.55
16544;BME280;8384;47.996;7.786;2023-07-31T09:07:12;98782.72;;;21.53;48.20
16544;BME280;8384;47.996;7.786;2023-07-31T09:09:38;98787.19;;;21.84;47.66
16544;BME280;8384;47.996;7.786;2023-07-31T09:12:05;98766.78;;;21.24;49.21
16544;BME280;8384;47.996;7.786;2023-07-31T09:14:31;98768.34;;;21.51;47.29
16544;BME280;8384;47.996;7.786;2023-07-31T09:16:58;98767.50;;;21.51;47.57
16544;BME280;8384;47.996;7.786;2023-07-31T09:19:34;98762.59;;;21.86;46.76
16544;BME280;8384;47.996;7.786;2023-07-31T09:22:03;98759.03;;;21.47;48.09
16544;BME280;8384;47.996;7.786;2023-07-31T09:24:29;98761.50;;;21.40;48.34
16544;BME280;8384;47.996;7.786;2023-07-31T09:26:56;98779.28;;;21.65;48.20
16544;BME280;8384;47.996;7.786;2023-07-31T09:29:21;98757.44;;;21.76;47.68
16544;BME280;8384;47.996;7.786;2023-07-31T09:31:47;98746.56;;;21.53;47.33
16544;BME280;8384;47.996;7.786;2023-07-31T09:34:12;98755.41;;;21.55;48.37
16544;BME280;8384;47.996;7.786;2023-07-31T09:36:44;98733.88;;;21.43;47.05
16544;BME280;8384;47.996;7.786;2023-07-31T09:39:11;98743.41;;;21.94;47.32
16544;BME280;8384;47.996;7.786;2023-07-31T09:41:42;98741.22;;;22.08;46.62
16544;BME280;8384;47.996;7.786;2023-07-31T09:44:07;98744.06;;;22.63;45.41
16544;BME280;8384;47.996;7.786;2023-07-31T09:46:35;98730.75;;;22.05;47.29
16544;BME280;8384;47.996;7.786;2023-07-31T09:49:13;98728.13;;;22.51;46.48
16544;BME280;8384;47.996;7.786;2023-07-31T09:51:40;98724.59;;;22.75;46.39
16544;BME280;8384;47.996;7.786;2023-07-31T09:54:15;98719.69;;;22.72;46.22
16544;BME280;8384;47.996;7.786;2023-07-31T09:56:46;98746.22;;;22.91;44.70
16544;BME280;8384;47.996;7.786;2023-07-31T09:59:13;98714.97;;;22.73;44.99
16544;BME280;8384;47.996;7.786;2023-07-31T10:01:40;98695.75;;;23.17;44.06
16544;BME280;8384;47.996;7.786;2023-07-31T10:04:08;98703.56;;;22.78;44.05
16544;BME280;8384;47.996;7.786;2023-07-31T10:06:34;98686.72;;;22.41;44.14
16544;BME280;8384;47.996;7.786;2023-07-31T10:09:02;98712.53;;;22.29;44.63
16544;BME280;8384;47.996;7.786;2023-07-31T10:11:30;98690.47;;;22.24;45.47
16544;BME280;8384;47.996;7.786;2023-07-31T10:13:56;98700.47;;;21.82;46.03
16544;BME280;8384;47.996;7.786;2023-07-31T10:16:22;98689.44;;;22.50;44.54
16544;BME280;8384;47.996;7.786;2023-07-31T10:18:47;98695.28;;;22.57;44.71
16544;BME280;8384;47.996;7.786;2023-07-31T10:21:13;98692.53;;;22.69;45.03
16544;BME280;8384;47.996;7.786;2023-07-31T10:23:39;98703.75;;;22.39;44.02
16544;BME280;8384;47.996;7.786;2023-07-31T10:26:05;98711.84;;;22.53;44.51
16544;BME280;8384;47.996;7.786;2023-07-31T10:28:32;98690.84;;;22.89;43.79
16544;BME280;8384;47.996;7.786;2023-07-31T10:30:58;98676.53;;;22.91;44.24
16544;BME280;8384;47.996;7.786;2023-07-31T10:33:23;98685.72;;;22.91;43.42
16544;BME280;8384;47.996;7.786;2023-07-31T10:35:48;98678.22;;;23.54;42.71
16544;BME280;8384;47.996;7.786;2023-07-31T10:38:14;98679.22;;;23.87;42.78
16544;BME280;8384;47.996;7.786;2023-07-31T10:40:40;98680.16;;;23.91;41.99
16544;BME280;8384;47.996;7.786;2023-07-31T10:43:05;98680.66;;;24.78;40.93
16544;BME280;8384;47.996;7.786;2023-07-31T10:45:35;98674.09;;;24.42;41.37
16544;BME280;8384;47.996;7.786;2023-07-31T10:48:12;98691.72;;;23.52;41.25
16544;BME280;8384;47.996;7.786;2023-07-31T10:50:40;98677.53;;;23.45;43.52
16544;BME280;8384;47.996;7.786;2023-07-31T10:53:26;98684.13;;;24.31;42.17
16544;BME280;8384;47.996;7.786;2023-07-31T10:55:52;98696.09;;;23.78;42.21
16544;BME280;8384;47.996;7.786;2023-07-31T10:58:19;98674.53;;;23.38;43.00
16544;BME280;8384;47.996;7.786;2023-07-31T11:00:45;98688.78;;;23.73;41.85
16544;BME280;8384;47.996;7.786;2023-07-31T11:03:19;98666.78;;;23.84;41.45
16544;BME280;8384;47.996;7.786;2023-07-31T11:05:52;98683.13;;;23.57;43.23
16544;BME280;8384;47.996;7.786;2023-07-31T11:08:22;98675.44;;;23.66;42.22
16544;BME280;8384;47.996;7.786;2023-07-31T11:13:40;98672.25;;;22.94;44.97
16544;BME280;8384;47.996;7.786;2023-07-31T11:16:06;98656.53;;;23.23;44.94
16544;BME280;8384;47.996;7.786;2023-07-31T11:18:31;98646.53;;;22.29;45.02
16544;BME280;8384;47.996;7.786;2023-07-31T11:20:56;98650.94;;;23.23;45.66
16544;BME280;8384;47.996;7.786;2023-07-31T11:23:22;98671.06;;;23.41;44.15
16544;BME280;8384;47.996;7.786;2023-07-31T11:25:48;98661.72;;;23.61;43.61
16544;BME280;8384;47.996;7.786;2023-07-31T11:28:15;98652.38;;;23.82;42.80
16544;BME280;8384;47.996;7.786;2023-07-31T11:30:42;98657.72;;;24.28;42.77
16544;BME280;8384;47.996;7.786;2023-07-31T11:33:10;98665.81;;;23.51;43.77
16544;BME280;8384;47.996;7.786;2023-07-31T11:35:56;98664.06;;;23.22;45.04
16544;BME280;8384;47.996;7.786;2023-07-31T11:38:28;98668.09;;;23.12;45.44
16544;BME280;8384;47.996;7.786;2023-07-31T11:40:56;98667.97;;;22.96;45.75
16544;BME280;8384;47.996;7.786;2023-07-31T11:43:22;98638.84;;;22.26;47.21
16544;BME280;8384;47.996;7.786;2023-07-31T11:45:49;98637.44;;;23.12;45.37
16544;BME280;8384;47.996;7.786;2023-07-31T11:48:26;98636.94;;;22.73;46.08
16544;BME280;8384;47.996;7.786;2023-07-31T11:50:58;98631.78;;;23.33;45.84
16544;BME280;8384;47.996;7.786;2023-07-31T11:53:31;98558.78;;;22.69;44.72
16544;BME280;8384;47.996;7.786;2023-07-31T11:55:59;98626.63;;;23.60;44.12
16544;BME280;8384;47.996;7.786;2023-07-31T11:58:29;98625.72;;;23.31;43.89
16544;BME280;8384;47.996;7.786;2023-07-31T12:00:55;98556.47;;;23.09;43.72
16544;BME280;8384;47.996;7.786;2023-07-31T12:03:21;98495.66;;;24.08;42.80
16544;BME280;8384;47.996;7.786;2023-07-31T12:05:47;98543.63;;;24.75;42.14
16544;BME280;8384;47.996;7.786;2023-07-31T12:08:13;98531.69;;;24.94;41.23
16544;BME280;8384;47.996;7.786;2023-07-31T12:10:39;98584.81;;;25.10;41.86
16544;BME280;8384;47.996;7.786;2023-07-31T12:13:10;98562.41;;;24.30;43.01
16544;BME280;8384;47.996;7.786;2023-07-31T12:15:42;98508.25;;;24.18;42.59
16544;BME280;8384;47.996;7.786;2023-07-31T12:18:09;98576.81;;;24.32;43.99
16544;BME280;8384;47.996;7.786;2023-07-31T12:20:35;98553.75;;;23.90;41.99
16544;BME280;8384;47.996;7.786;2023-07-31T12:23:04;98499.06;;;24.34;41.59
16544;BME280;8384;47.996;7.786;2023-07-31T12:25:31;98564.91;;;25.31;40.95
16544;BME280;8384;47.996;7.786;2023-07-31T12:27:57;98537.00;;;25.15;40.07
16544;BME280;8384;47.996;7.786;2023-07-31T12:30:31;98522.38;;;24.25;40.80
16544;BME280;8384;47.996;7.786;2023-07-31T12:32:57;98513.53;;;25.39;40.22
16544;BME280;8384;47.996;7.786;2023-07-31T12:35:22;98490.03;;;25.24;40.12
16544;BME280;8384;47.996;7.786;2023-07-31T12:37:48;98564.97;;;25.15;39.60
16544;BME280;8384;47.996;7.786;2023-07-31T12:40:13;98552.25;;;24.69;41.48
16544;BME280;8384;47.996;7.786;2023-07-31T12:42:38;98526.16;;;25.49;39.34
16544;BME280;8384;47.996;7.786;2023-07-31T12:45:04;98532.25;;;25.94;39.88
16544;BME280;8384;47.996;7.786;2023-07-31T12:47:30;98520.94;;;25.48;39.62
16544;BME280;8384;47.996;7.786;2023-07-31T12:49:55;98535.28;;;26.48;38.04
16544;BME280;8384;47.996;7.786;2023-07-31T12:52:20;98521.81;;;25.71;37.51
16544;BME280;8384;47.996;7.786;2023-07-31T12:54:45;98511.03;;;25.93;38.54
16544;BME280;8384;47.996;7.786;2023-07-31T12:57:11;98536.56;;;24.97;39.88
16544;BME280;8384;47.996;7.786;2023-07-31T12:59:36;98527.47;;;25.00;40.49
16544;BME280;8384;47.996;7.786;2023-07-31T13:02:01;98517.97;;;25.60;40.05
16544;BME280;8384;47.996;7.786;2023-07-31T13:04:27;98509.22;;;25.62;40.07
16544;BME280;8384;47.996;7.786;2023-07-31T13:06:52;98512.06;;;25.85;39.31
16544;BME280;8384;47.996;7.786;2023-07-31T13:09:18;98528.94;;;26.08;39.50
16544;BME280;8384;47.996;7.786;2023-07-31T13:11:43;98478.91;;;25.87;39.18
16544;BME280;8384;47.996;7.786;2023-07-31T13:14:08;98497.19;;;25.41;38.72